Dubrovnik, Hrvatska

11:29 AM CEST on Listopad 24, 2014 (GMT +0200)
Cilipi | Change Station
CLOSE
Current Station
Zračna luka
Location: Dubrovnik,
Visina: 541 ft
Nearby Weather Stations

Elev 541 ft 42.56 °N, 18.27 °E | Updated 29 minutes ago

Clear
Vedro
57 °F
Feels Like 57 °F
S
17
Vjetar Varijabla smjera vjetra Vjetar from SSI

Danas
High -- | Low -- °F
--% Chance of Precip.
Jučer
High -- | Low -- °F
Precip. -- u
7:10 AM 5:51 PM
Mladi Mjesec, 0% visible
Pritisak 29.77 u
Vidljivost -9999.0 milja
Oblaci
Točka rose 32 °F
Vlažnost 38%
Kiša 0.00 u
Visina snijega Not available.
UV Not available.
Pollen Not available.
Kvalitet zraka Not available.
Flu Activity Not available.
METAR LDDU 240900Z 03015KT 350V070 CAVOK 14/M00 Q1008 BECMG 31010KT

More Conditions Fewer Conditions

Pritisak 29.77 u
Vidljivost -9999.0 milja
Oblaci
Točka rose 32 °F
Vlažnost 38%
Kiša 0.00 u
Visina snijega Not available.
UV Not available.
Pollen Not available.
Kvalitet zraka Not available.
Flu Activity Not available.
METAR LDDU 240900Z 03015KT 350V070 CAVOK 14/M00 Q1008 BECMG 31010KT

More Conditions Fewer Conditions

10-Day Weather Forecast

Almanac

Astronomija

Oct. 24, 2014 Izlazak Zalazak
Trenutno vrijeme 7:10 AM CEST 5:51 PM CEST
Civilni sumrak 6:41 AM CEST 6:20 PM CEST
Nautički sumrak 6:08 AM CEST 6:52 PM CEST
Astronomski sumrak 5:35 AM CEST 7:25 PM CEST
Moon 7:31 AM CEST 6:18 PM CEST
Duljina trajanja vidljive svjetlosti 11h 38m
Duljina dana
10h 40m
Tomorrow will be 2m 40s shorter.
Mladi Mjesec, 0% of the Moon is Illuminated
Danas
Mladi Mjesec
Oct 30
Prva četvrtina
Nov 6
Pun mjesec
Nov 14
Zadnja četvrt
Nov 22
New

Yesterday's Extremes

Country Highs Country Lows

Community

WunderPhotos

Upload Photos

1,764,513 photos uploaded!

WunderBlogs® & News

Nearby

Kvalitet zraka

Not available.

Visina snijega

Not available.

Earthquake Activity

Grad Distance Mag. Time & Date
No recent earthquake activity has been reported nearby.
Minimum magnitude displayed is 2.5.

Coastal Water Temperatures

Mjesto Temperatura
No Stations Reporting

Nearby Weather Stations